sensor_id;sensor_type;location;lat;lon;timestamp;P1;durP1;ratioP1;P2;durP2;ratioP2
15871;SDS011;8035;51.962;7.162;2023-07-29T00:00:17;6.10;;;5.50;;
15871;SDS011;8035;51.962;7.162;2023-07-29T00:02:44;5.83;;;5.23;;
15871;SDS011;8035;51.962;7.162;2023-07-29T00:05:09;6.27;;;5.67;;
15871;SDS011;8035;51.962;7.162;2023-07-29T00:07:35;6.63;;;5.33;;
15871;SDS011;8035;51.962;7.162;2023-07-29T00:10:00;7.07;;;5.37;;
15871;SDS011;8035;51.962;7.162;2023-07-29T00:12:26;6.23;;;5.63;;
15871;SDS011;8035;51.962;7.162;2023-07-29T00:14:52;5.83;;;5.33;;
15871;SDS011;8035;51.962;7.162;2023-07-29T00:17:17;8.23;;;5.30;;
15871;SDS011;8035;51.962;7.162;2023-07-29T00:19:44;7.40;;;5.40;;
15871;SDS011;8035;51.962;7.162;2023-07-29T00:22:10;6.10;;;5.50;;
15871;SDS011;8035;51.962;7.162;2023-07-29T00:24:36;7.57;;;5.53;;
15871;SDS011;8035;51.962;7.162;2023-07-29T00:27:02;5.73;;;5.20;;
15871;SDS011;8035;51.962;7.162;2023-07-29T00:29:27;6.10;;;5.50;;
15871;SDS011;8035;51.962;7.162;2023-07-29T00:31:53;6.67;;;5.40;;
15871;SDS011;8035;51.962;7.162;2023-07-29T00:34:18;6.23;;;5.40;;
15871;SDS011;8035;51.962;7.162;2023-07-29T00:36:45;6.93;;;4.80;;
15871;SDS011;8035;51.962;7.162;2023-07-29T00:39:11;7.10;;;5.37;;
15871;SDS011;8035;51.962;7.162;2023-07-29T00:41:36;6.80;;;6.10;;
15871;SDS011;8035;51.962;7.162;2023-07-29T00:44:02;7.97;;;6.20;;
15871;SDS011;8035;51.962;7.162;2023-07-29T00:46:28;7.80;;;5.20;;
15871;SDS011;8035;51.962;7.162;2023-07-29T00:48:54;6.67;;;5.93;;
15871;SDS011;8035;51.962;7.162;2023-07-29T00:51:20;6.00;;;5.40;;
15871;SDS011;8035;51.962;7.162;2023-07-29T00:53:46;6.30;;;5.27;;
15871;SDS011;8035;51.962;7.162;2023-07-29T00:56:12;6.50;;;5.60;;
15871;SDS011;8035;51.962;7.162;2023-07-29T00:58:38;6.27;;;5.43;;
15871;SDS011;8035;51.962;7.162;2023-07-29T01:01:03;6.80;;;4.90;;
15871;SDS011;8035;51.962;7.162;2023-07-29T01:03:29;5.47;;;4.97;;
15871;SDS011;8035;51.962;7.162;2023-07-29T01:05:59;6.53;;;5.23;;
15871;SDS011;8035;51.962;7.162;2023-07-29T01:08:38;6.90;;;5.90;;
15871;SDS011;8035;51.962;7.162;2023-07-29T01:16:46;8.27;;;6.00;;
15871;SDS011;8035;51.962;7.162;2023-07-29T01:22:21;6.33;;;5.53;;
15871;SDS011;8035;51.962;7.162;2023-07-29T01:24:47;6.10;;;5.50;;
15871;SDS011;8035;51.962;7.162;2023-07-29T01:27:13;6.27;;;5.67;;
15871;SDS011;8035;51.962;7.162;2023-07-29T01:29:38;8.67;;;6.77;;
15871;SDS011;8035;51.962;7.162;2023-07-29T01:32:06;7.90;;;6.37;;
15871;SDS011;8035;51.962;7.162;2023-07-29T01:34:52;8.97;;;6.43;;
15871;SDS011;8035;51.962;7.162;2023-07-29T01:37:25;7.43;;;6.53;;
15871;SDS011;8035;51.962;7.162;2023-07-29T01:39:52;7.33;;;6.40;;
15871;SDS011;8035;51.962;7.162;2023-07-29T01:42:22;10.47;;;6.63;;
15871;SDS011;8035;51.962;7.162;2023-07-29T01:44:49;7.73;;;5.90;;
15871;SDS011;8035;51.962;7.162;2023-07-29T01:47:14;7.73;;;6.77;;
15871;SDS011;8035;51.962;7.162;2023-07-29T01:49:41;6.77;;;5.57;;
15871;SDS011;8035;51.962;7.162;2023-07-29T01:52:06;7.10;;;6.40;;
15871;SDS011;8035;51.962;7.162;2023-07-29T01:54:32;8.67;;;6.63;;
15871;SDS011;8035;51.962;7.162;2023-07-29T01:56:58;8.20;;;7.30;;
15871;SDS011;8035;51.962;7.162;2023-07-29T01:59:23;9.27;;;6.83;;
15871;SDS011;8035;51.962;7.162;2023-07-29T02:01:49;8.93;;;7.23;;
15871;SDS011;8035;51.962;7.162;2023-07-29T02:04:15;7.67;;;6.87;;
15871;SDS011;8035;51.962;7.162;2023-07-29T02:06:40;8.27;;;7.33;;
15871;SDS011;8035;51.962;7.162;2023-07-29T02:09:06;8.10;;;7.30;;
15871;SDS011;8035;51.962;7.162;2023-07-29T02:11:31;7.97;;;6.67;;
15871;SDS011;8035;51.962;7.162;2023-07-29T02:13:57;7.10;;;6.40;;
15871;SDS011;8035;51.962;7.162;2023-07-29T02:16:23;9.40;;;6.93;;
15871;SDS011;8035;51.962;7.162;2023-07-29T02:18:48;8.00;;;6.97;;
15871;SDS011;8035;51.962;7.162;2023-07-29T02:21:14;9.20;;;6.87;;
15871;SDS011;8035;51.962;7.162;2023-07-29T02:23:40;8.77;;;7.27;;
15871;SDS011;8035;51.962;7.162;2023-07-29T02:26:06;7.40;;;6.60;;
15871;SDS011;8035;51.962;7.162;2023-07-29T02:28:32;9.03;;;6.80;;
15871;SDS011;8035;51.962;7.162;2023-07-29T02:31:08;8.67;;;7.10;;
15871;SDS011;8035;51.962;7.162;2023-07-29T02:33:34;8.37;;;7.20;;
15871;SDS011;8035;51.962;7.162;2023-07-29T02:36:00;9.83;;;8.20;;
15871;SDS011;8035;51.962;7.162;2023-07-29T02:38:25;8.57;;;7.70;;
15871;SDS011;8035;51.962;7.162;2023-07-29T02:40:51;9.47;;;8.20;;
15871;SDS011;8035;51.962;7.162;2023-07-29T02:43:16;7.77;;;7.07;;
15871;SDS011;8035;51.962;7.162;2023-07-29T02:45:42;7.90;;;7.10;;
15871;SDS011;8035;51.962;7.162;2023-07-29T02:48:07;9.47;;;7.17;;
15871;SDS011;8035;51.962;7.162;2023-07-29T02:50:34;10.07;;;7.67;;
15871;SDS011;8035;51.962;7.162;2023-07-29T02:52:59;7.47;;;6.67;;
15871;SDS011;8035;51.962;7.162;2023-07-29T02:55:26;12.53;;;8.20;;
15871;SDS011;8035;51.962;7.162;2023-07-29T02:57:52;9.90;;;8.90;;
15871;SDS011;8035;51.962;7.162;2023-07-29T03:00:17;8.93;;;8.03;;
15871;SDS011;8035;51.962;7.162;2023-07-29T03:02:43;10.47;;;8.70;;
15871;SDS011;8035;51.962;7.162;2023-07-29T03:05:08;9.30;;;7.63;;
15871;SDS011;8035;51.962;7.162;2023-07-29T03:07:34;8.83;;;7.70;;
15871;SDS011;8035;51.962;7.162;2023-07-29T03:09:59;10.47;;;8.20;;
15871;SDS011;8035;51.962;7.162;2023-07-29T03:12:25;7.90;;;7.10;;
15871;SDS011;8035;51.962;7.162;2023-07-29T03:14:51;8.97;;;8.17;;
15871;SDS011;8035;51.962;7.162;2023-07-29T03:17:17;9.80;;;7.93;;
15871;SDS011;8035;51.962;7.162;2023-07-29T03:19:42;10.37;;;8.30;;
15871;SDS011;8035;51.962;7.162;2023-07-29T03:22:08;9.10;;;8.17;;
15871;SDS011;8035;51.962;7.162;2023-07-29T03:24:33;10.53;;;9.43;;
15871;SDS011;8035;51.962;7.162;2023-07-29T03:26:59;8.83;;;7.93;;
15871;SDS011;8035;51.962;7.162;2023-07-29T03:29:24;11.17;;;8.50;;
15871;SDS011;8035;51.962;7.162;2023-07-29T03:31:50;11.40;;;9.83;;
15871;SDS011;8035;51.962;7.162;2023-07-29T03:34:16;9.80;;;8.77;;
15871;SDS011;8035;51.962;7.162;2023-07-29T03:36:41;11.03;;;7.73;;
15871;SDS011;8035;51.962;7.162;2023-07-29T03:39:07;11.23;;;8.00;;
15871;SDS011;8035;51.962;7.162;2023-07-29T03:41:32;7.80;;;7.00;;
15871;SDS011;8035;51.962;7.162;2023-07-29T03:43:58;10.63;;;7.83;;
15871;SDS011;8035;51.962;7.162;2023-07-29T03:46:24;9.03;;;8.13;;
15871;SDS011;8035;51.962;7.162;2023-07-29T03:48:50;10.83;;;9.23;;
15871;SDS011;8035;51.962;7.162;2023-07-29T03:51:15;8.87;;;8.07;;
15871;SDS011;8035;51.962;7.162;2023-07-29T03:53:41;9.40;;;8.37;;
15871;SDS011;8035;51.962;7.162;2023-07-29T03:56:07;8.50;;;7.73;;
15871;SDS011;8035;51.962;7.162;2023-07-29T03:58:32;10.20;;;9.20;;
15871;SDS011;8035;51.962;7.162;2023-07-29T04:00:58;10.77;;;8.73;;
15871;SDS011;8035;51.962;7.162;2023-07-29T04:03:24;9.73;;;8.40;;
15871;SDS011;8035;51.962;7.162;2023-07-29T04:05:49;12.80;;;9.90;;
15871;SDS011;8035;51.962;7.162;2023-07-29T04:08:15;10.90;;;9.80;;
15871;SDS011;8035;51.962;7.162;2023-07-29T04:10:40;10.70;;;9.70;;
15871;SDS011;8035;51.962;7.162;2023-07-29T04:13:06;12.10;;;10.40;;
15871;SDS011;8035;51.962;7.162;2023-07-29T04:15:31;11.57;;;9.70;;
15871;SDS011;8035;51.962;7.162;2023-07-29T04:17:57;11.50;;;10.30;;
15871;SDS011;8035;51.962;7.162;2023-07-29T04:20:22;10.90;;;9.80;;
15871;SDS011;8035;51.962;7.162;2023-07-29T04:22:48;10.63;;;9.50;;
15871;SDS011;8035;51.962;7.162;2023-07-29T04:25:13;12.03;;;10.80;;
15871;SDS011;8035;51.962;7.162;2023-07-29T04:27:39;12.10;;;9.97;;
15871;SDS011;8035;51.962;7.162;2023-07-29T04:30:05;11.67;;;10.47;;
15871;SDS011;8035;51.962;7.162;2023-07-29T04:32:31;12.27;;;10.70;;
15871;SDS011;8035;51.962;7.162;2023-07-29T04:34:56;13.13;;;11.30;;
15871;SDS011;8035;51.962;7.162;2023-07-29T04:37:22;13.07;;;11.67;;
15871;SDS011;8035;51.962;7.162;2023-07-29T04:39:47;11.60;;;10.40;;
15871;SDS011;8035;51.962;7.162;2023-07-29T04:42:13;11.50;;;10.33;;
15871;SDS011;8035;51.962;7.162;2023-07-29T04:44:39;13.50;;;11.43;;
15871;SDS011;8035;51.962;7.162;2023-07-29T04:47:06;12.93;;;11.53;;
15871;SDS011;8035;51.962;7.162;2023-07-29T04:49:32;14.37;;;11.97;;
15871;SDS011;8035;51.962;7.162;2023-07-29T04:51:57;12.27;;;10.43;;
15871;SDS011;8035;51.962;7.162;2023-07-29T04:54:23;13.13;;;11.73;;
15871;SDS011;8035;51.962;7.162;2023-07-29T04:56:48;13.43;;;12.13;;
15871;SDS011;8035;51.962;7.162;2023-07-29T04:59:14;14.23;;;12.57;;
15871;SDS011;8035;51.962;7.162;2023-07-29T05:01:40;15.63;;;13.30;;
15871;SDS011;8035;51.962;7.162;2023-07-29T05:04:07;13.63;;;12.23;;
15871;SDS011;8035;51.962;7.162;2023-07-29T05:06:32;15.37;;;13.67;;
15871;SDS011;8035;51.962;7.162;2023-07-29T05:08:59;15.07;;;13.57;;
15871;SDS011;8035;51.962;7.162;2023-07-29T05:11:37;13.40;;;12.03;;
15871;SDS011;8035;51.962;7.162;2023-07-29T05:14:02;15.30;;;13.63;;
15871;SDS011;8035;51.962;7.162;2023-07-29T05:16:29;16.20;;;13.90;;
15871;SDS011;8035;51.962;7.162;2023-07-29T05:18:55;16.70;;;13.37;;
15871;SDS011;8035;51.962;7.162;2023-07-29T05:21:20;15.17;;;13.67;;
15871;SDS011;8035;51.962;7.162;2023-07-29T05:23:46;16.60;;;13.57;;
15871;SDS011;8035;51.962;7.162;2023-07-29T05:26:11;15.53;;;13.80;;
15871;SDS011;8035;51.962;7.162;2023-07-29T05:28:37;19.17;;;14.27;;
15871;SDS011;8035;51.962;7.162;2023-07-29T05:31:02;17.33;;;13.43;;
15871;SDS011;8035;51.962;7.162;2023-07-29T05:33:28;17.63;;;13.53;;
15871;SDS011;8035;51.962;7.162;2023-07-29T05:35:54;13.23;;;11.93;;
15871;SDS011;8035;51.962;7.162;2023-07-29T05:38:20;12.17;;;10.87;;
15871;SDS011;8035;51.962;7.162;2023-07-29T05:40:47;12.17;;;10.73;;
15871;SDS011;8035;51.962;7.162;2023-07-29T05:43:13;12.07;;;9.73;;
15871;SDS011;8035;51.962;7.162;2023-07-29T05:45:40;8.10;;;7.23;;
15871;SDS011;8035;51.962;7.162;2023-07-29T05:48:05;6.80;;;6.17;;
15871;SDS011;8035;51.962;7.162;2023-07-29T05:50:31;6.13;;;5.53;;
15871;SDS011;8035;51.962;7.162;2023-07-29T05:52:56;5.23;;;4.73;;
15871;SDS011;8035;51.962;7.162;2023-07-29T05:55:22;6.10;;;5.33;;
15871;SDS011;8035;51.962;7.162;2023-07-29T05:57:48;5.40;;;4.90;;
15871;SDS011;8035;51.962;7.162;2023-07-29T06:00:13;5.00;;;4.50;;
15871;SDS011;8035;51.962;7.162;2023-07-29T06:02:39;4.77;;;4.00;;
15871;SDS011;8035;51.962;7.162;2023-07-29T06:05:06;3.83;;;3.53;;
15871;SDS011;8035;51.962;7.162;2023-07-29T06:07:32;7.00;;;3.53;;
15871;SDS011;8035;51.962;7.162;2023-07-29T06:09:59;5.00;;;4.13;;
15871;SDS011;8035;51.962;7.162;2023-07-29T06:12:25;4.30;;;3.70;;
15871;SDS011;8035;51.962;7.162;2023-07-29T06:14:50;6.17;;;4.47;;
15871;SDS011;8035;51.962;7.162;2023-07-29T06:17:16;4.10;;;3.73;;
15871;SDS011;8035;51.962;7.162;2023-07-29T06:19:42;4.57;;;3.97;;
15871;SDS011;8035;51.962;7.162;2023-07-29T06:22:07;6.97;;;3.83;;
15871;SDS011;8035;51.962;7.162;2023-07-29T06:24:34;4.23;;;3.80;;
15871;SDS011;8035;51.962;7.162;2023-07-29T06:26:59;4.37;;;3.63;;
15871;SDS011;8035;51.962;7.162;2023-07-29T06:29:25;4.70;;;3.60;;
15871;SDS011;8035;51.962;7.162;2023-07-29T06:31:50;5.40;;;4.17;;
15871;SDS011;8035;51.962;7.162;2023-07-29T06:34:16;5.93;;;3.97;;
15871;SDS011;8035;51.962;7.162;2023-07-29T06:36:42;4.03;;;3.70;;
15871;SDS011;8035;51.962;7.162;2023-07-29T06:39:08;3.77;;;3.30;;
15871;SDS011;8035;51.962;7.162;2023-07-29T06:41:34;4.10;;;3.57;;
15871;SDS011;8035;51.962;7.162;2023-07-29T06:44:00;4.30;;;3.23;;
15871;SDS011;8035;51.962;7.162;2023-07-29T06:46:25;3.00;;;2.70;;
15871;SDS011;8035;51.962;7.162;2023-07-29T06:48:51;3.97;;;3.07;;
15871;SDS011;8035;51.962;7.162;2023-07-29T06:51:16;3.50;;;3.17;;
15871;SDS011;8035;51.962;7.162;2023-07-29T06:53:42;3.17;;;2.83;;
15871;SDS011;8035;51.962;7.162;2023-07-29T06:56:08;3.80;;;2.67;;
15871;SDS011;8035;51.962;7.162;2023-07-29T06:58:34;2.93;;;2.40;;
15871;SDS011;8035;51.962;7.162;2023-07-29T07:00:59;5.10;;;3.00;;
15871;SDS011;8035;51.962;7.162;2023-07-29T07:03:25;2.90;;;2.27;;
15871;SDS011;8035;51.962;7.162;2023-07-29T07:05:51;3.23;;;2.93;;
15871;SDS011;8035;51.962;7.162;2023-07-29T07:08:16;3.30;;;2.60;;
15871;SDS011;8035;51.962;7.162;2023-07-29T07:10:42;3.90;;;3.03;;
15871;SDS011;8035;51.962;7.162;2023-07-29T07:13:07;2.90;;;2.60;;
15871;SDS011;8035;51.962;7.162;2023-07-29T07:15:33;3.73;;;3.27;;
15871;SDS011;8035;51.962;7.162;2023-07-29T07:17:58;4.03;;;2.80;;
15871;SDS011;8035;51.962;7.162;2023-07-29T07:20:24;4.40;;;3.07;;
15871;SDS011;8035;51.962;7.162;2023-07-29T07:22:49;4.70;;;3.20;;
15871;SDS011;8035;51.962;7.162;2023-07-29T07:25:15;3.40;;;3.10;;
15871;SDS011;8035;51.962;7.162;2023-07-29T07:27:41;3.47;;;3.07;;
15871;SDS011;8035;51.962;7.162;2023-07-29T07:30:06;3.50;;;3.20;;
15871;SDS011;8035;51.962;7.162;2023-07-29T07:32:32;5.23;;;3.43;;
15871;SDS011;8035;51.962;7.162;2023-07-29T07:34:58;4.83;;;3.60;;
15871;SDS011;8035;51.962;7.162;2023-07-29T07:37:23;3.83;;;3.33;;
15871;SDS011;8035;51.962;7.162;2023-07-29T07:39:49;3.97;;;2.90;;
15871;SDS011;8035;51.962;7.162;2023-07-29T07:42:14;4.67;;;2.97;;
15871;SDS011;8035;51.962;7.162;2023-07-29T07:44:40;4.37;;;3.07;;
15871;SDS011;8035;51.962;7.162;2023-07-29T07:47:06;3.27;;;2.57;;
15871;SDS011;8035;51.962;7.162;2023-07-29T07:49:31;3.47;;;2.67;;
15871;SDS011;8035;51.962;7.162;2023-07-29T07:51:57;4.00;;;2.83;;
15871;SDS011;8035;51.962;7.162;2023-07-29T07:54:22;3.43;;;2.80;;
15871;SDS011;8035;51.962;7.162;2023-07-29T07:56:48;5.93;;;3.10;;
15871;SDS011;8035;51.962;7.162;2023-07-29T07:59:14;3.77;;;3.07;;
15871;SDS011;8035;51.962;7.162;2023-07-29T08:01:39;2.83;;;2.57;;
15871;SDS011;8035;51.962;7.162;2023-07-29T08:04:05;3.80;;;2.70;;
15871;SDS011;8035;51.962;7.162;2023-07-29T08:06:31;3.10;;;2.50;;
15871;SDS011;8035;51.962;7.162;2023-07-29T08:08:57;3.00;;;2.60;;
15871;SDS011;8035;51.962;7.162;2023-07-29T08:11:23;3.17;;;2.30;;
15871;SDS011;8035;51.962;7.162;2023-07-29T08:13:49;3.63;;;2.47;;
15871;SDS011;8035;51.962;7.162;2023-07-29T08:16:14;3.27;;;2.40;;
15871;SDS011;8035;51.962;7.162;2023-07-29T08:18:40;2.23;;;2.00;;
15871;SDS011;8035;51.962;7.162;2023-07-29T08:21:06;2.30;;;2.10;;
15871;SDS011;8035;51.962;7.162;2023-07-29T08:23:32;3.77;;;2.00;;
15871;SDS011;8035;51.962;7.162;2023-07-29T08:26:00;2.17;;;1.90;;
15871;SDS011;8035;51.962;7.162;2023-07-29T08:28:30;3.73;;;2.33;;
15871;SDS011;8035;51.962;7.162;2023-07-29T08:31:00;3.90;;;2.07;;
15871;SDS011;8035;51.962;7.162;2023-07-29T08:33:27;3.77;;;2.37;;
15871;SDS011;8035;51.962;7.162;2023-07-29T08:35:53;3.93;;;1.93;;
15871;SDS011;8035;51.962;7.162;2023-07-29T08:38:19;2.53;;;1.90;;
15871;SDS011;8035;51.962;7.162;2023-07-29T08:41:04;2.53;;;2.17;;
15871;SDS011;8035;51.962;7.162;2023-07-29T08:43:34;2.45;;;2.17;;
15871;SDS011;8035;51.962;7.162;2023-07-29T08:46:03;2.40;;;1.77;;
15871;SDS011;8035;51.962;7.162;2023-07-29T08:51:11;2.90;;;2.00;;
15871;SDS011;8035;51.962;7.162;2023-07-29T08:53:37;2.63;;;1.85;;
15871;SDS011;8035;51.962;7.162;2023-07-29T08:56:03;2.55;;;1.73;;
15871;SDS011;8035;51.962;7.162;2023-07-29T08:58:30;3.13;;;1.90;;
15871;SDS011;8035;51.962;7.162;2023-07-29T09:00:56;1.77;;;1.67;;
15871;SDS011;8035;51.962;7.162;2023-07-29T09:03:22;2.20;;;2.00;;
15871;SDS011;8035;51.962;7.162;2023-07-29T09:05:48;3.33;;;1.70;;
15871;SDS011;8035;51.962;7.162;2023-07-29T09:08:14;3.13;;;1.80;;
15871;SDS011;8035;51.962;7.162;2023-07-29T09:10:40;2.90;;;1.63;;
15871;SDS011;8035;51.962;7.162;2023-07-29T09:13:06;1.60;;;1.50;;
15871;SDS011;8035;51.962;7.162;2023-07-29T09:15:33;1.73;;;1.10;;
15871;SDS011;8035;51.962;7.162;2023-07-29T09:18:00;2.33;;;1.60;;
15871;SDS011;8035;51.962;7.162;2023-07-29T09:20:39;1.50;;;1.40;;
15871;SDS011;8035;51.962;7.162;2023-07-29T09:23:06;1.80;;;1.65;;
15871;SDS011;8035;51.962;7.162;2023-07-29T09:25:34;4.25;;;1.60;;
15871;SDS011;8035;51.962;7.162;2023-07-29T09:28:00;1.97;;;1.53;;
15871;SDS011;8035;51.962;7.162;2023-07-29T09:30:27;2.30;;;1.75;;
15871;SDS011;8035;51.962;7.162;2023-07-29T09:32:56;1.70;;;1.50;;
15871;SDS011;8035;51.962;7.162;2023-07-29T09:35:22;3.10;;;1.65;;
15871;SDS011;8035;51.962;7.162;2023-07-29T09:37:50;3.42;;;1.52;;
15871;SDS011;8035;51.962;7.162;2023-07-29T09:40:17;1.30;;;1.20;;
15871;SDS011;8035;51.962;7.162;2023-07-29T09:42:50;1.20;;;1.10;;
15871;SDS011;8035;51.962;7.162;2023-07-29T09:45:20;1.25;;;1.15;;
15871;SDS011;8035;51.962;7.162;2023-07-29T09:47:51;3.15;;;1.40;;
15871;SDS011;8035;51.962;7.162;2023-07-29T09:50:17;3.05;;;1.27;;
15871;SDS011;8035;51.962;7.162;2023-07-29T09:52:43;1.40;;;1.30;;
15871;SDS011;8035;51.962;7.162;2023-07-29T09:55:10;2.13;;;1.50;;
15871;SDS011;8035;51.962;7.162;2023-07-29T09:57:38;2.25;;;1.50;;
15871;SDS011;8035;51.962;7.162;2023-07-29T10:00:05;1.65;;;1.30;;
15871;SDS011;8035;51.962;7.162;2023-07-29T10:02:36;1.93;;;1.33;;
15871;SDS011;8035;51.962;7.162;2023-07-29T10:05:03;1.60;;;1.50;;
15871;SDS011;8035;51.962;7.162;2023-07-29T10:07:30;1.67;;;1.50;;
15871;SDS011;8035;51.962;7.162;2023-07-29T10:09:56;1.63;;;1.30;;
15871;SDS011;8035;51.962;7.162;2023-07-29T10:12:24;1.73;;;1.60;;
15871;SDS011;8035;51.962;7.162;2023-07-29T10:14:50;1.83;;;1.63;;
15871;SDS011;8035;51.962;7.162;2023-07-29T10:17:16;1.63;;;1.53;;
15871;SDS011;8035;51.962;7.162;2023-07-29T10:19:42;2.30;;;1.50;;
15871;SDS011;8035;51.962;7.162;2023-07-29T10:22:09;2.67;;;1.50;;
15871;SDS011;8035;51.962;7.162;2023-07-29T10:24:37;2.00;;;1.75;;
15871;SDS011;8035;51.962;7.162;2023-07-29T10:27:06;3.70;;;1.60;;
15871;SDS011;8035;51.962;7.162;2023-07-29T10:29:38;2.33;;;1.80;;
15871;SDS011;8035;51.962;7.162;2023-07-29T10:32:06;2.08;;;1.92;;
15871;SDS011;8035;51.962;7.162;2023-07-29T10:34:34;2.13;;;1.92;;
15871;SDS011;8035;51.962;7.162;2023-07-29T10:37:01;1.95;;;1.75;;
15871;SDS011;8035;51.962;7.162;2023-07-29T10:39:27;2.55;;;2.22;;
15871;SDS011;8035;51.962;7.162;2023-07-29T10:42:04;2.38;;;2.17;;
15871;SDS011;8035;51.962;7.162;2023-07-29T10:47:22;2.15;;;1.95;;
15871;SDS011;8035;51.962;7.162;2023-07-29T10:49:50;2.50;;;2.30;;
15871;SDS011;8035;51.962;7.162;2023-07-29T10:55:01;2.70;;;2.22;;
15871;SDS011;8035;51.962;7.162;2023-07-29T10:57:38;3.65;;;2.42;;
15871;SDS011;8035;51.962;7.162;2023-07-29T11:00:06;2.00;;;1.80;;
15871;SDS011;8035;51.962;7.162;2023-07-29T11:02:36;2.60;;;1.90;;
15871;SDS011;8035;51.962;7.162;2023-07-29T11:05:16;2.00;;;1.80;;
15871;SDS011;8035;51.962;7.162;2023-07-29T11:07:45;2.35;;;2.00;;
15871;SDS011;8035;51.962;7.162;2023-07-29T11:10:13;2.30;;;1.63;;
15871;SDS011;8035;51.962;7.162;2023-07-29T11:17:52;1.60;;;1.50;;
15871;SDS011;8035;51.962;7.162;2023-07-29T11:20:31;1.70;;;1.60;;
15871;SDS011;8035;51.962;7.162;2023-07-29T11:22:59;2.20;;;1.92;;
15871;SDS011;8035;51.962;7.162;2023-07-29T11:25:28;2.03;;;1.80;;
15871;SDS011;8035;51.962;7.162;2023-07-29T11:27:56;2.42;;;1.70;;
15871;SDS011;8035;51.962;7.162;2023-07-29T11:30:23;1.85;;;1.75;;
15871;SDS011;8035;51.962;7.162;2023-07-29T11:32:52;1.70;;;1.60;;
15871;SDS011;8035;51.962;7.162;2023-07-29T11:35:18;5.18;;;2.72;;
15871;SDS011;8035;51.962;7.162;2023-07-29T11:37:46;1.73;;;1.60;;
15871;SDS011;8035;51.962;7.162;2023-07-29T11:40:13;2.65;;;2.10;;
15871;SDS011;8035;51.962;7.162;2023-07-29T11:42:40;3.53;;;2.53;;
15871;SDS011;8035;51.962;7.162;2023-07-29T11:45:06;3.58;;;2.13;;
15871;SDS011;8035;51.962;7.162;2023-07-29T11:47:32;2.60;;;2.03;;
15871;SDS011;8035;51.962;7.162;2023-07-29T11:50:02;3.17;;;2.30;;
15871;SDS011;8035;51.962;7.162;2023-07-29T11:52:35;2.15;;;1.70;;
15871;SDS011;8035;51.962;7.162;2023-07-29T11:55:02;2.08;;;1.90;;
15871;SDS011;8035;51.962;7.162;2023-07-29T11:57:29;2.03;;;1.92;;
15871;SDS011;8035;51.962;7.162;2023-07-29T11:59:55;2.22;;;1.90;;
15871;SDS011;8035;51.962;7.162;2023-07-29T12:02:22;2.45;;;2.25;;
15871;SDS011;8035;51.962;7.162;2023-07-29T12:04:49;2.65;;;1.90;;
15871;SDS011;8035;51.962;7.162;2023-07-29T12:07:16;2.88;;;2.40;;
15871;SDS011;8035;51.962;7.162;2023-07-29T12:09:43;2.13;;;1.90;;
15871;SDS011;8035;51.962;7.162;2023-07-29T12:12:09;2.20;;;1.83;;
15871;SDS011;8035;51.962;7.162;2023-07-29T12:14:34;2.47;;;1.90;;
15871;SDS011;8035;51.962;7.162;2023-07-29T12:17:00;3.03;;;2.13;;
15871;SDS011;8035;51.962;7.162;2023-07-29T12:19:37;1.88;;;1.77;;
15871;SDS011;8035;51.962;7.162;2023-07-29T12:22:04;3.58;;;1.60;;
15871;SDS011;8035;51.962;7.162;2023-07-29T12:24:31;1.98;;;1.77;;
15871;SDS011;8035;51.962;7.162;2023-07-29T12:26:58;1.80;;;1.70;;
15871;SDS011;8035;51.962;7.162;2023-07-29T12:29:24;2.05;;;1.90;;
15871;SDS011;8035;51.962;7.162;2023-07-29T12:31:57;2.35;;;1.90;;
15871;SDS011;8035;51.962;7.162;2023-07-29T12:34:25;1.83;;;1.73;;
15871;SDS011;8035;51.962;7.162;2023-07-29T12:36:53;2.20;;;1.83;;
15871;SDS011;8035;51.962;7.162;2023-07-29T12:39:24;3.17;;;2.13;;
15871;SDS011;8035;51.962;7.162;2023-07-29T12:41:52;4.60;;;1.92;;
15871;SDS011;8035;51.962;7.162;2023-07-29T12:44:19;2.75;;;1.80;;
15871;SDS011;8035;51.962;7.162;2023-07-29T12:46:45;1.83;;;1.60;;
15871;SDS011;8035;51.962;7.162;2023-07-29T12:49:11;2.13;;;1.92;;
15871;SDS011;8035;51.962;7.162;2023-07-29T12:51:36;1.90;;;1.60;;
15871;SDS011;8035;51.962;7.162;2023-07-29T12:54:05;1.65;;;1.55;;
15871;SDS011;8035;51.962;7.162;2023-07-29T12:56:31;1.60;;;1.50;;
15871;SDS011;8035;51.962;7.162;2023-07-29T12:58:57;1.85;;;1.63;;
15871;SDS011;8035;51.962;7.162;2023-07-29T13:01:23;3.47;;;1.70;;
15871;SDS011;8035;51.962;7.162;2023-07-29T13:03:49;2.05;;;1.80;;
15871;SDS011;8035;51.962;7.162;2023-07-29T13:06:15;1.60;;;1.50;;
15871;SDS011;8035;51.962;7.162;2023-07-29T13:08:41;1.73;;;1.63;;
15871;SDS011;8035;51.962;7.162;2023-07-29T13:11:07;2.42;;;1.58;;
15871;SDS011;8035;51.962;7.162;2023-07-29T13:13:32;2.42;;;1.63;;
15871;SDS011;8035;51.962;7.162;2023-07-29T13:15:58;1.80;;;1.70;;
15871;SDS011;8035;51.962;7.162;2023-07-29T13:18:24;2.03;;;1.60;;
15871;SDS011;8035;51.962;7.162;2023-07-29T13:20:50;2.22;;;1.50;;
15871;SDS011;8035;51.962;7.162;2023-07-29T13:23:16;1.60;;;1.50;;
15871;SDS011;8035;51.962;7.162;2023-07-29T13:25:41;2.28;;;1.67;;
15871;SDS011;8035;51.962;7.162;2023-07-29T13:28:08;3.92;;;1.77;;
15871;SDS011;8035;51.962;7.162;2023-07-29T13:30:34;2.28;;;1.80;;
15871;SDS011;8035;51.962;7.162;2023-07-29T13:33:00;2.25;;;1.80;;
15871;SDS011;8035;51.962;7.162;2023-07-29T13:35:25;1.85;;;1.60;;
15871;SDS011;8035;51.962;7.162;2023-07-29T13:37:51;4.38;;;1.75;;
15871;SDS011;8035;51.962;7.162;2023-07-29T13:40:17;1.85;;;1.70;;
15871;SDS011;8035;51.962;7.162;2023-07-29T13:42:42;1.90;;;1.63;;
15871;SDS011;8035;51.962;7.162;2023-07-29T13:45:08;2.00;;;1.80;;
15871;SDS011;8035;51.962;7.162;2023-07-29T13:47:34;2.33;;;2.00;;
15871;SDS011;8035;51.962;7.162;2023-07-29T13:49:59;3.00;;;1.80;;
15871;SDS011;8035;51.962;7.162;2023-07-29T13:52:25;4.03;;;2.60;;
15871;SDS011;8035;51.962;7.162;2023-07-29T13:54:51;3.10;;;2.38;;
15871;SDS011;8035;51.962;7.162;2023-07-29T13:57:17;3.90;;;2.53;;
15871;SDS011;8035;51.962;7.162;2023-07-29T13:59:42;2.97;;;2.40;;
15871;SDS011;8035;51.962;7.162;2023-07-29T14:02:08;4.40;;;2.37;;
15871;SDS011;8035;51.962;7.162;2023-07-29T14:04:34;2.90;;;2.60;;
15871;SDS011;8035;51.962;7.162;2023-07-29T14:06:59;3.33;;;2.50;;
15871;SDS011;8035;51.962;7.162;2023-07-29T14:09:26;4.90;;;2.80;;
15871;SDS011;8035;51.962;7.162;2023-07-29T14:11:52;3.50;;;2.50;;
15871;SDS011;8035;51.962;7.162;2023-07-29T14:14:18;5.33;;;2.63;;
15871;SDS011;8035;51.962;7.162;2023-07-29T14:16:44;3.83;;;2.53;;
15871;SDS011;8035;51.962;7.162;2023-07-29T14:19:10;2.53;;;1.83;;
15871;SDS011;8035;51.962;7.162;2023-07-29T14:21:35;3.20;;;1.70;;
15871;SDS011;8035;51.962;7.162;2023-07-29T14:24:01;4.50;;;2.03;;
15871;SDS011;8035;51.962;7.162;2023-07-29T14:26:26;2.40;;;1.97;;
15871;SDS011;8035;51.962;7.162;2023-07-29T14:28:52;2.33;;;2.00;;
15871;SDS011;8035;51.962;7.162;2023-07-29T14:31:17;3.77;;;1.50;;
15871;SDS011;8035;51.962;7.162;2023-07-29T14:33:43;1.73;;;1.20;;
15871;SDS011;8035;51.962;7.162;2023-07-29T14:36:09;2.80;;;1.30;;
15871;SDS011;8035;51.962;7.162;2023-07-29T14:38:35;2.37;;;1.27;;
15871;SDS011;8035;51.962;7.162;2023-07-29T14:41:01;1.20;;;1.00;;
15871;SDS011;8035;51.962;7.162;2023-07-29T14:43:27;1.57;;;1.10;;
15871;SDS011;8035;51.962;7.162;2023-07-29T14:45:53;1.37;;;1.00;;
15871;SDS011;8035;51.962;7.162;2023-07-29T14:48:18;1.90;;;1.27;;
15871;SDS011;8035;51.962;7.162;2023-07-29T14:50:44;2.17;;;1.30;;
15871;SDS011;8035;51.962;7.162;2023-07-29T14:53:10;1.37;;;0.80;;
15871;SDS011;8035;51.962;7.162;2023-07-29T14:55:36;1.20;;;1.00;;
15871;SDS011;8035;51.962;7.162;2023-07-29T14:58:02;2.00;;;1.80;;
15871;SDS011;8035;51.962;7.162;2023-07-29T15:00:28;1.20;;;1.07;;
15871;SDS011;8035;51.962;7.162;2023-07-29T15:02:53;2.90;;;1.27;;
15871;SDS011;8035;51.962;7.162;2023-07-29T15:05:19;2.23;;;1.40;;
15871;SDS011;8035;51.962;7.162;2023-07-29T15:07:45;1.83;;;1.20;;
15871;SDS011;8035;51.962;7.162;2023-07-29T15:10:13;1.30;;;1.20;;
15871;SDS011;8035;51.962;7.162;2023-07-29T15:12:43;1.30;;;1.20;;
15871;SDS011;8035;51.962;7.162;2023-07-29T15:15:09;1.77;;;1.27;;